Time;durP1;ratioP1;P1;durP2;ratioP2;P2;SDS_P1;SDS_P2;PMS_P1;PMS_P2;Temp;Humidity;BMP_temperature;BMP_pressure;BME280_temperature;BME280_humidity;BME280_pressure;Samples;Min_cycle;Max_cycle;Signal;HPM_P1;HPM_P2
2022/07/18 00:01:52;;;;;;;;;9.33;8.00;;;;;28.04;24.85;101659.97;4953255;28;44992;-68
2022/07/18 00:04:18;;;;;;;;;12.67;12.33;;;;;28.03;24.46;101660.94;4955104;28;45418;-67
2022/07/18 00:06:43;;;;;;;;;8.00;8.00;;;;;27.97;24.78;101646.47;4954439;28;45746;-68
2022/07/18 00:09:08;;;;;;;;;10.00;9.00;;;;;27.88;24.89;101632.06;4936307;28;45132;-65
2022/07/18 00:11:34;;;;;;;;;8.00;7.00;;;;;27.85;24.76;101618.44;4954951;28;45139;-69
2022/07/18 00:13:59;;;;;;;;;8.67;8.67;;;;;27.97;24.64;101647.38;4937321;28;45336;-66
2022/07/18 00:16:25;;;;;;;;;6.67;6.00;;;;;27.87;24.78;101638.50;4953056;28;45739;-67
2022/07/18 00:18:50;;;;;;;;;8.33;8.33;;;;;27.90;25.07;101649.41;4949720;28;45067;-65
2022/07/18 00:21:16;;;;;;;;;15.67;11.00;;;;;27.80;24.98;101630.50;4952494;28;45177;-65
2022/07/18 00:23:42;;;;;;;;;9.33;9.33;;;;;27.79;25.32;101636.97;4954485;28;45128;-65
2022/07/18 00:26:07;;;;;;;;;15.67;11.00;;;;;27.69;25.28;101612.53;4953711;28;45698;-67
2022/07/18 00:28:33;;;;;;;;;11.67;10.67;;;;;27.84;25.01;101632.22;4945477;28;45180;-68
2022/07/18 00:30:58;;;;;;;;;13.33;11.00;;;;;27.79;25.26;101618.63;4946395;28;45140;-67
2022/07/18 00:33:23;;;;;;;;;9.00;8.67;;;;;27.88;25.24;101636.63;4950892;28;45243;-65
2022/07/18 00:35:49;;;;;;;;;11.33;9.00;;;;;27.88;25.04;101644.88;4947671;28;45071;-66
2022/07/18 00:38:15;;;;;;;;;10.67;7.67;;;;;27.53;25.05;101587.38;4950769;28;45180;-66
2022/07/18 00:40:40;;;;;;;;;10.00;9.67;;;;;27.83;25.45;101644.13;4948106;28;44884;-66
2022/07/18 00:43:05;;;;;;;;;14.33;11.00;;;;;27.81;25.25;101635.06;4951530;28;45415;-65
2022/07/18 00:45:31;;;;;;;;;13.33;8.33;;;;;27.75;25.39;101631.56;4950720;28;45186;-68
2022/07/18 00:47:57;;;;;;;;;13.33;9.67;;;;;27.63;25.66;101612.69;4952253;28;45737;-65
2022/07/18 00:50:24;;;;;;;;;10.33;10.33;;;;;27.80;25.62;101635.97;4948521;28;44964;-68
2022/07/18 00:52:50;;;;;;;;;15.67;13.00;;;;;27.72;25.65;101628.91;4951649;28;45252;-67
2022/07/18 00:55:15;;;;;;;;;24.00;24.00;;;;;27.75;25.38;101627.88;4951054;28;45343;-68
2022/07/18 00:57:42;;;;;;;;;8.67;7.00;;;;;27.75;25.64;101634.31;4948946;28;45213;-69
2022/07/18 01:02:57;;;;;;;;;5.00;5.00;;;;;27.69;25.19;101633.59;4943038;28;45624;-68
2022/07/18 01:05:23;;;;;;;;;7.33;7.33;;;;;27.68;25.58;101632.66;4927745;28;46473;-68
2022/07/18 01:07:51;;;;;;;;;5.67;5.67;;;;;27.68;25.09;101626.28;4943643;28;45488;-67
2022/07/18 01:10:18;;;;;;;;;10.00;6.00;;;;;27.51;25.22;101599.38;4948062;28;45224;-67
2022/07/18 01:12:44;;;;;;;;;5.33;4.00;;;;;27.52;24.96;101599.31;4949438;28;45065;-68
2022/07/18 01:15:09;;;;;;;;;5.00;3.67;;;;;27.65;24.63;101620.88;4951336;28;45098;-66
2022/07/18 01:17:35;;;;;;;;;5.67;5.67;;;;;27.64;24.70;101621.84;4951422;28;45183;-67
2022/07/18 01:20:00;;;;;;;;;4.33;4.33;;;;;27.62;24.67;101624.66;4953392;28;45183;-67
2022/07/18 01:22:26;;;;;;;;;4.67;4.67;;;;;27.49;24.71;101613.13;4953868;28;45032;-68
2022/07/18 01:24:51;;;;;;;;;4.00;4.00;;;;;27.39;24.97;101585.06;4941823;28;45935;-68
2022/07/18 01:27:19;;;;;;;;;6.00;4.67;;;;;27.48;24.93;101602.22;4947655;28;45179;-67
2022/07/18 01:29:46;;;;;;;;;7.33;5.67;;;;;27.53;25.15;101623.06;4944234;28;45075;-66
2022/07/18 01:32:13;;;;;;;;;4.00;4.00;;;;;27.54;25.17;101627.63;4948492;28;45364;-64
2022/07/18 01:34:39;;;;;;;;;6.33;3.67;;;;;27.35;24.98;101605.31;4947052;28;45035;-65
2022/07/18 01:37:05;;;;;;;;;5.00;3.67;;;;;27.50;25.26;101633.25;4949826;28;45190;-68
2022/07/18 01:39:30;;;;;;;;;5.33;5.00;;;;;27.46;25.89;101637.94;4951588;28;45592;-68
2022/07/18 01:42:07;;;;;;;;;6.33;6.33;;;;;27.45;25.77;101635.22;4953838;28;45170;-66
2022/07/18 01:44:37;;;;;;;;;7.00;5.33;;;;;27.30;25.85;101618.28;4954300;28;45061;-68
2022/07/18 01:47:04;;;;;;;;;8.00;7.67;;;;;27.39;26.30;101625.34;4950562;28;45076;-68
2022/07/18 01:49:30;;;;;;;;;12.33;8.00;;;;;27.39;25.91;101626.25;4952074;28;45075;-69
2022/07/18 01:51:56;;;;;;;;;6.33;6.33;;;;;27.19;26.15;101588.38;4953085;28;46026;-67
2022/07/18 01:54:24;;;;;;;;;10.67;9.00;;;;;27.34;25.97;101617.25;4954328;28;45688;-67
2022/07/18 01:56:50;;;;;;;;;6.67;6.33;;;;;27.32;26.14;101618.22;4955788;28;45108;-64
2022/07/18 01:59:16;;;;;;;;;10.00;9.00;;;;;27.20;26.21;101601.13;4951389;28;45136;-63
2022/07/18 02:01:42;;;;;;;;;3.67;3.67;;;;;27.19;26.35;101598.44;4949795;28;45114;-64
2022/07/18 02:04:07;;;;;;;;;8.67;8.67;;;;;27.25;26.29;101608.34;4947919;28;45166;-67
2022/07/18 02:06:33;;;;;;;;;10.67;8.33;;;;;27.19;26.17;101593.88;4950389;28;45120;-64
2022/07/18 02:08:58;;;;;;;;;6.00;6.00;;;;;27.17;26.18;101586.63;4951496;28;45053;-67
2022/07/18 02:11:23;;;;;;;;;8.67;7.33;;;;;26.87;26.39;101528.97;4951270;28;45085;-67
2022/07/18 02:13:49;;;;;;;;;2.00;2.00;;;;;27.21;26.38;101589.22;4952658;28;45440;-68
2022/07/18 02:16:15;;;;;;;;;9.33;6.00;;;;;27.16;26.31;101585.72;4952350;28;45204;-67
2022/07/18 02:18:41;;;;;;;;;10.00;7.00;;;;;27.10;26.80;101590.50;4954991;28;45142;-65
2022/07/18 02:21:07;;;;;;;;;6.67;6.67;;;;;27.14;26.74;101593.13;4953903;28;45021;-68
2022/07/18 02:23:33;;;;;;;;;8.67;8.67;;;;;27.14;26.63;101592.19;4949493;28;45606;-65
2022/07/18 02:25:58;;;;;;;;;6.00;5.67;;;;;26.98;26.52;101570.72;4947559;28;45084;-66
2022/07/18 02:28:24;;;;;;;;;7.00;7.00;;;;;26.93;26.38;101578.19;4940543;28;45242;-68
2022/07/18 02:30:49;;;;;;;;;5.33;5.33;;;;;26.72;26.33;101548.63;4949664;28;44977;-66
2022/07/18 02:33:15;;;;;;;;;6.67;4.33;;;;;27.06;26.39;101610.72;4945789;28;45161;-66
2022/07/18 02:35:41;;;;;;;;;6.67;5.67;;;;;27.06;26.16;101606.16;4949638;28;45193;-67
2022/07/18 02:38:07;;;;;;;;;4.00;3.67;;;;;27.07;25.72;101607.03;4947863;28;45265;-69
2022/07/18 02:40:33;;;;;;;;;1.33;1.33;;;;;27.05;25.80;101597.97;4951427;28;45605;-67
2022/07/18 02:42:58;;;;;;;;;3.67;3.67;;;;;27.03;25.50;101598.91;4933662;28;46094;-67
2022/07/18 02:45:23;;;;;;;;;7.00;4.67;;;;;27.02;25.47;101598.94;4952041;28;45124;-64
2022/07/18 02:47:49;;;;;;;;;6.00;4.00;;;;;27.00;25.20;101596.25;4952593;28;45033;-68
2022/07/18 02:50:15;;;;;;;;;4.67;4.00;;;;;26.99;25.13;101599.94;4949661;28;45191;-67
2022/07/18 02:52:40;;;;;;;;;4.00;4.00;;;;;26.59;25.07;101546.19;4950292;28;45182;-66
2022/07/18 02:55:07;;;;;;;;;2.33;2.33;;;;;26.97;25.16;101611.91;4950629;28;45233;-70
2022/07/18 02:57:32;;;;;;;;;3.00;3.00;;;;;26.96;25.03;101604.59;4951832;28;45163;-68
2022/07/18 02:59:58;;;;;;;;;3.67;3.67;;;;;26.83;25.28;101590.34;4948710;28;45368;-69
2022/07/18 03:02:23;;;;;;;;;5.00;5.00;;;;;26.93;25.99;101611.09;4946339;28;45149;-67
2022/07/18 03:04:49;;;;;;;;;8.00;6.67;;;;;26.80;26.38;101584.94;4947849;28;45000;-67
2022/07/18 03:07:14;;;;;;;;;12.33;11.00;;;;;26.89;26.96;101612.09;4949693;28;45067;-68
2022/07/18 03:09:39;;;;;;;;;19.25;15.75;;;;;26.85;27.23;101622.25;4948660;28;45171;-67
2022/07/18 03:12:05;;;;;;;;;9.33;8.00;;;;;26.81;27.58;101614.16;4951226;28;45428;-68
2022/07/18 03:14:30;;;;;;;;;10.33;9.00;;;;;26.75;27.55;101611.59;4949781;28;44921;-67
2022/07/18 03:16:55;;;;;;;;;9.67;9.00;;;;;26.59;27.83;101597.38;4953193;28;44999;-67
2022/07/18 03:19:21;;;;;;;;;10.67;7.00;;;;;26.66;28.13;101610.91;4953112;28;45270;-66
2022/07/18 03:21:46;;;;;;;;;8.67;8.00;;;;;26.61;28.19;101592.72;4955157;28;45178;-65
2022/07/18 03:24:13;;;;;;;;;9.67;9.67;;;;;26.62;28.35;101600.91;4954371;28;45059;-65
2022/07/18 03:26:39;;;;;;;;;10.67;9.00;;;;;26.44;28.24;101565.78;4943716;28;45160;-68
2022/07/18 03:29:04;;;;;;;;;9.00;7.33;;;;;26.57;28.49;101586.44;4937008;28;45204;-67
2022/07/18 03:31:30;;;;;;;;;8.67;8.67;;;;;26.58;28.08;101595.56;4945924;28;45632;-65
2022/07/18 03:33:55;;;;;;;;;8.67;8.67;;;;;26.55;28.37;101593.81;4947260;28;45154;-67
2022/07/18 03:36:21;;;;;;;;;8.00;7.00;;;;;26.51;28.50;101586.59;4947899;28;45182;-70
2022/07/18 03:38:46;;;;;;;;;7.00;7.00;;;;;26.48;28.32;101583.94;4953235;28;45268;-68
2022/07/18 03:41:12;;;;;;;;;10.67;8.67;;;;;26.45;28.70;101573.09;4951974;28;46493;-66
2022/07/18 03:43:38;;;;;;;;;7.67;6.33;;;;;26.45;28.47;101575.81;4952531;28;45039;-64
2022/07/18 03:46:04;;;;;;;;;9.00;8.00;;;;;25.90;28.54;101472.22;4953432;28;45146;-67
2022/07/18 03:48:30;;;;;;;;;6.67;6.67;;;;;26.45;28.71;101578.56;4953576;28;45066;-64
2022/07/18 03:50:55;;;;;;;;;9.67;9.67;;;;;26.39;28.35;101573.25;4950519;28;46116;-68
2022/07/18 03:53:20;;;;;;;;;7.00;7.00;;;;;26.45;28.43;101578.56;4954013;28;45654;-64
2022/07/18 03:55:46;;;;;;;;;6.33;4.00;;;;;26.38;28.60;101582.38;4951880;28;45084;-65
2022/07/18 03:58:11;;;;;;;;;8.33;6.67;;;;;26.38;28.59;101591.53;4954306;28;45748;-68
2022/07/18 04:00:36;;;;;;;;;9.00;7.67;;;;;26.28;28.86;101565.28;4945228;28;45517;-67
2022/07/18 04:03:02;;;;;;;;;7.67;6.67;;;;;26.38;28.43;101586.06;4944314;28;45214;-68
2022/07/18 04:05:27;;;;;;;;;6.00;6.00;;;;;26.34;27.88;101578.84;4946829;28;45102;-70
2022/07/18 04:07:53;;;;;;;;;7.33;5.00;;;;;26.34;27.86;101588.91;4931278;28;45152;-64
2022/07/18 04:10:18;;;;;;;;;5.00;4.00;;;;;26.36;27.30;101598.88;4952059;28;47044;-68
2022/07/18 04:12:47;;;;;;;;;4.33;4.33;;;;;26.36;27.82;101604.34;4953465;28;46298;-65
2022/07/18 04:15:13;;;;;;;;;6.00;6.00;;;;;26.26;28.27;101586.34;4949211;28;45154;-65
2022/07/18 04:17:38;;;;;;;;;8.67;7.00;;;;;26.35;28.13;101609.88;4950976;28;45176;-64
2022/07/18 04:20:04;;;;;;;;;8.67;6.67;;;;;26.36;28.01;101608.94;4941161;28;47475;-65
2022/07/18 04:22:29;;;;;;;;;8.33;6.00;;;;;26.38;28.78;101609.78;4950233;28;45111;-68
2022/07/18 04:24:54;;;;;;;;;7.00;7.00;;;;;26.32;28.61;101604.50;4948503;28;45035;-68
2022/07/18 04:27:20;;;;;;;;;9.00;7.67;;;;;26.21;28.95;101600.16;4932792;28;45104;-66
2022/07/18 04:29:45;;;;;;;;;9.67;8.33;;;;;26.17;29.30;101587.50;4951175;28;45427;-68
2022/07/18 04:32:10;;;;;;;;;11.00;9.00;;;;;26.22;29.36;101603.81;4950711;28;48712;-68
2022/07/18 04:34:36;;;;;;;;;12.00;8.67;;;;;26.22;29.25;101590.13;4950789;28;45345;-65
2022/07/18 04:37:03;;;;;;;;;8.00;8.00;;;;;26.18;29.67;101575.59;4949448;28;45399;-66
2022/07/18 04:39:29;;;;;;;;;8.00;7.00;;;;;26.09;29.90;101568.50;4945457;28;45528;-67
2022/07/18 04:41:55;;;;;;;;;9.00;8.00;;;;;25.99;30.84;101560.59;4943409;28;45096;-64
2022/07/18 04:44:20;;;;;;;;;12.33;9.00;;;;;26.00;30.14;101563.25;4945330;28;45126;-68
2022/07/18 04:46:45;;;;;;;;;9.67;8.00;;;;;25.91;29.92;101547.03;4947534;28;46179;-64
2022/07/18 04:49:11;;;;;;;;;18.75;18.50;;;;;25.99;30.14;101555.09;4948008;28;53127;-66
2022/07/18 04:51:36;;;;;;;;;8.67;6.00;;;;;26.00;29.79;101566.00;4949819;28;44987;-66
2022/07/18 04:54:02;;;;;;;;;3.67;3.00;;;;;26.02;30.07;101569.63;4948732;28;45232;-66
2022/07/18 04:56:27;;;;;;;;;10.67;7.00;;;;;26.04;29.45;101562.25;4949914;28;45106;-65
2022/07/18 04:58:52;;;;;;;;;9.00;7.67;;;;;26.05;29.03;101557.66;4951685;28;45553;-67
2022/07/18 05:01:18;;;;;;;;;9.33;7.00;;;;;25.95;27.91;101537.78;4946634;28;45360;-69
2022/07/18 05:03:43;;;;;;;;;4.67;4.67;;;;;25.92;28.15;101533.31;4946939;28;45116;-63
2022/07/18 05:06:08;;;;;;;;;6.00;4.33;;;;;25.93;28.00;101540.56;4943911;28;45395;-65
2022/07/18 05:08:34;;;;;;;;;2.67;2.33;;;;;25.86;27.55;101527.97;4948970;28;45193;-66
2022/07/18 05:10:59;;;;;;;;;5.33;4.00;;;;;25.89;27.32;101544.34;4950288;28;45198;-66
2022/07/18 05:13:24;;;;;;;;;3.33;3.33;;;;;25.80;27.13;101525.38;4950237;28;45437;-63
2022/07/18 05:15:50;;;;;;;;;9.33;9.33;;;;;25.87;27.11;101540.75;4953650;28;45163;-65
2022/07/18 05:18:16;;;;;;;;;4.00;4.00;;;;;25.76;27.32;101510.00;4952237;28;45114;-66
2022/07/18 05:20:41;;;;;;;;;11.00;6.00;;;;;25.88;27.42;101537.03;4948876;28;45113;-67
2022/07/18 05:23:07;;;;;;;;;5.33;5.33;;;;;25.86;27.59;101510.66;4949735;28;45049;-64
2022/07/18 05:25:32;;;;;;;;;6.33;5.00;;;;;25.81;27.75;101496.19;4951017;28;45137;-65
2022/07/18 05:27:57;;;;;;;;;5.00;5.00;;;;;25.87;27.31;101498.75;4951096;28;45080;-65
2022/07/18 05:30:24;;;;;;;;;3.33;3.33;;;;;25.82;27.28;101492.50;4952554;28;45075;-66
2022/07/18 05:32:51;;;;;;;;;6.33;4.67;;;;;25.89;27.31;101533.38;4944023;28;44926;-65
2022/07/18 05:35:17;;;;;;;;;4.00;3.67;;;;;25.98;27.47;101554.19;4945175;28;45192;-65
2022/07/18 05:37:43;;;;;;;;;7.00;5.67;;;;;26.05;27.20;101568.63;4950434;28;45176;-65
2022/07/18 05:40:12;;;;;;;;;5.00;3.00;;;;;26.08;26.87;101576.75;4944999;28;45039;-65
2022/07/18 05:42:37;;;;;;;;;7.00;6.33;;;;;26.10;27.18;101575.78;4949163;28;45273;-68
2022/07/18 05:45:04;;;;;;;;;4.00;4.00;;;;;26.17;27.34;101570.13;4947786;28;45607;-64
2022/07/18 05:47:30;;;;;;;;;5.00;5.00;;;;;26.19;27.18;101580.13;4948591;28;45689;-65
2022/07/18 05:49:55;;;;;;;;;7.67;5.33;;;;;26.22;27.18;101573.69;4931948;28;45767;-68
2022/07/18 05:52:20;;;;;;;;;6.00;6.00;;;;;26.27;27.27;101571.72;4946058;28;45082;-66
2022/07/18 05:54:46;;;;;;;;;5.33;5.33;;;;;26.22;27.00;101555.41;4949618;28;45193;-65
2022/07/18 05:57:11;;;;;;;;;5.67;4.67;;;;;26.08;27.31;101527.47;4950636;28;45074;-64
2022/07/18 05:59:36;;;;;;;;;5.67;5.00;;;;;26.26;27.39;101551.63;4948998;28;45028;-64
2022/07/18 06:02:02;;;;;;;;;5.33;5.33;;;;;25.81;28.04;101463.34;4950868;28;45155;-64
2022/07/18 06:04:27;;;;;;;;;12.33;10.00;;;;;26.42;28.34;101564.94;4949410;28;45304;-65
2022/07/18 06:06:52;;;;;;;;;16.00;12.33;;;;;26.24;28.85;101548.03;4946132;28;45887;-64
2022/07/18 06:09:18;;;;;;;;;5.67;5.67;;;;;26.41;28.75;101555.81;4944982;28;45723;-70
2022/07/18 06:11:44;;;;;;;;;10.00;7.33;;;;;26.45;28.93;101560.28;4944422;28;44909;-67
2022/07/18 06:14:09;;;;;;;;;14.00;10.67;;;;;26.48;29.09;101565.69;4946924;28;45099;-67
2022/07/18 06:16:36;;;;;;;;;8.33;7.00;;;;;26.49;28.78;101550.13;4944995;28;45105;-68
2022/07/18 06:19:02;;;;;;;;;14.33;12.67;;;;;26.51;28.32;101550.09;4947841;28;45122;-68
2022/07/18 06:21:27;;;;;;;;;72.25;55.75;;;;;26.56;28.52;101553.59;4948180;28;45048;-67
2022/07/18 06:23:53;;;;;;;;;41.00;33.75;;;;;26.64;28.62;101557.06;4949150;28;45054;-67
2022/07/18 06:26:18;;;;;;;;;13.33;12.67;;;;;26.64;28.61;101551.56;4951686;28;45580;-69
2022/07/18 06:28:44;;;;;;;;;10.33;9.00;;;;;26.74;28.20;101555.84;4952802;28;45175;-68
2022/07/18 06:31:11;;;;;;;;;6.67;6.67;;;;;26.76;28.12;101558.56;4951256;28;45226;-68
2022/07/18 06:33:37;;;;;;;;;5.33;5.00;;;;;26.65;27.78;101543.31;4946684;28;45386;-68
2022/07/18 06:36:02;;;;;;;;;8.00;7.00;;;;;26.81;27.80;101570.28;4934594;28;45739;-68
2022/07/18 06:38:28;;;;;;;;;5.67;5.67;;;;;26.75;27.79;101541.22;4928949;28;45491;-68
2022/07/18 06:40:53;;;;;;;;;7.67;6.00;;;;;26.91;27.94;101558.13;4933657;28;45467;-68
2022/07/18 06:43:19;;;;;;;;;9.00;9.00;;;;;26.95;28.83;101559.81;4934247;28;45438;-56
2022/07/18 06:45:47;;;;;;;;;10.00;8.67;;;;;27.02;27.96;101568.78;4932606;28;45421;-60
2022/07/18 06:48:16;;;;;;;;;5.00;5.00;;;;;26.92;27.31;101546.19;4936545;28;45378;-56
2022/07/18 06:50:44;;;;;;;;;6.00;5.00;;;;;27.09;26.82;101569.50;4931071;28;45825;-64
2022/07/18 06:53:10;;;;;;;;;7.33;6.00;;;;;27.07;27.04;101554.94;4947044;28;45564;-60
2022/07/18 06:55:35;;;;;;;;;5.00;5.00;;;;;27.14;26.77;101568.44;4948995;28;45636;-58
2022/07/18 06:58:01;;;;;;;;;11.00;9.00;;;;;27.25;27.30;101573.56;4946573;28;45230;-63
2022/07/18 07:00:26;;;;;;;;;5.00;5.00;;;;;27.12;26.00;101544.72;4950996;28;44977;-55
2022/07/18 07:02:52;;;;;;;;;8.33;7.00;;;;;27.33;26.21;101577.03;4941422;28;45336;-55
2022/07/18 07:05:20;;;;;;;;;6.33;6.00;;;;;27.32;26.86;101560.59;4946191;28;45567;-60
2022/07/18 07:07:46;;;;;;;;;9.00;6.00;;;;;27.35;25.92;101574.22;4940127;28;45354;-69
2022/07/18 07:10:12;;;;;;;;;4.00;4.00;;;;;27.36;25.85;101578.78;4933330;28;45845;-68
2022/07/18 07:12:39;;;;;;;;;6.00;6.00;;;;;27.43;25.67;101571.25;4927930;28;45481;-69
2022/07/18 07:15:05;;;;;;;;;5.67;5.67;;;;;27.34;25.67;101544.97;4934671;28;45473;-69
2022/07/18 07:17:30;;;;;;;;;9.33;7.33;;;;;27.51;25.56;101585.66;4933534;28;45399;-70
2022/07/18 07:19:55;;;;;;;;;8.00;5.00;;;;;27.57;25.49;101575.38;4935439;28;45493;-70
2022/07/18 07:22:21;;;;;;;;;7.33;5.67;;;;;27.51;25.31;101545.38;4936699;28;45305;-70
2022/07/18 07:24:46;;;;;;;;;6.67;5.33;;;;;27.68;25.48;101565.88;4936627;28;47339;-69
2022/07/18 07:27:12;;;;;;;;;6.00;6.00;;;;;27.66;25.37;101549.47;4930733;28;45457;-71
2022/07/18 07:29:37;;;;;;;;;5.00;5.00;;;;;27.75;25.29;101549.19;4928577;28;45365;-70
2022/07/18 07:32:02;;;;;;;;;6.00;6.00;;;;;27.89;25.32;101561.56;4930605;28;45545;-69
2022/07/18 07:34:30;;;;;;;;;4.33;4.33;;;;;27.96;25.51;101568.66;4932791;28;46107;-69
2022/07/18 07:36:55;;;;;;;;;5.00;5.00;;;;;28.04;25.68;101571.16;4932942;28;45714;-70
2022/07/18 07:39:20;;;;;;;;;4.67;4.67;;;;;27.79;25.71;101502.41;4932995;28;45422;-70
2022/07/18 07:41:46;;;;;;;;;6.00;6.00;;;;;28.21;25.10;101562.34;4931903;28;45832;-70
2022/07/18 07:44:11;;;;;;;;;6.00;6.00;;;;;28.18;25.55;101544.13;4935123;28;45342;-70
2022/07/18 07:46:36;;;;;;;;;9.00;6.00;;;;;28.29;25.21;101557.47;4935480;28;45342;-70
2022/07/18 07:49:02;;;;;;;;;2.67;2.67;;;;;28.19;25.65;101520.28;4933925;28;45395;-69
2022/07/18 07:51:27;;;;;;;;;5.67;5.67;;;;;28.41;25.79;101548.81;4934436;28;45424;-69
2022/07/18 07:53:52;;;;;;;;;8.00;6.00;;;;;28.43;25.16;101544.16;4932687;28;46089;-70
2022/07/18 07:56:19;;;;;;;;;7.67;6.33;;;;;28.53;25.70;101546.56;4935606;28;45472;-68
2022/07/18 07:58:45;;;;;;;;;7.33;7.33;;;;;28.49;25.36;101519.19;4935581;28;45498;-69
2022/07/18 08:01:11;;;;;;;;;7.33;6.00;;;;;28.65;26.03;101526.91;4929985;28;45473;-68
2022/07/18 08:03:37;;;;;;;;;6.00;6.00;;;;;28.81;25.36;101535.50;4930402;28;47401;-69
2022/07/18 08:06:03;;;;;;;;;7.67;4.67;;;;;28.92;25.73;101535.06;4926227;28;45409;-69
2022/07/18 08:08:28;;;;;;;;;11.00;8.00;;;;;29.06;25.81;101535.47;4932029;28;45228;-68
2022/07/18 08:10:53;;;;;;;;;9.33;6.00;;;;;29.08;25.95;101527.16;4929710;28;45540;-70
2022/07/18 08:13:19;;;;;;;;;6.00;6.00;;;;;29.19;25.53;101531.31;4932327;28;46567;-61
2022/07/18 08:15:44;;;;;;;;;5.67;4.67;;;;;29.23;25.40;101535.72;4932668;28;45215;-59
2022/07/18 08:18:10;;;;;;;;;6.33;5.33;;;;;29.26;26.25;101540.22;4933103;28;45478;-60
2022/07/18 08:20:35;;;;;;;;;12.67;11.00;;;;;29.31;25.94;101543.69;4935015;28;45368;-60
2022/07/18 08:23:03;;;;;;;;;11.00;7.00;;;;;29.44;26.99;101527.56;4934640;28;45450;-61
2022/07/18 08:25:30;;;;;;;;;11.00;9.00;;;;;29.57;26.40;101519.72;4936471;28;45421;-62
2022/07/18 08:27:56;;;;;;;;;7.67;6.33;;;;;29.69;26.78;101527.47;4926805;28;45486;-59
2022/07/18 08:30:22;;;;;;;;;11.33;9.00;;;;;29.69;26.38;101512.81;4928496;28;45510;-63
2022/07/18 08:32:48;;;;;;;;;5.00;5.00;;;;;29.83;26.20;101535.19;4930076;28;45450;-61
2022/07/18 08:35:13;;;;;;;;;5.33;5.33;;;;;29.91;25.63;101532.09;4928918;28;45683;-59
2022/07/18 08:37:39;;;;;;;;;10.00;7.33;;;;;30.00;26.75;101530.84;4932370;28;45448;-61
2022/07/18 08:40:05;;;;;;;;;5.67;4.67;;;;;30.07;26.24;101537.88;4930810;28;45434;-61
2022/07/18 08:42:33;;;;;;;;;10.33;7.67;;;;;30.13;26.51;101529.34;4933846;28;46376;-60
2022/07/18 08:44:58;;;;;;;;;8.00;8.00;;;;;30.20;26.35;101525.34;4932818;28;45590;-62
2022/07/18 08:47:27;;;;;;;;;6.67;6.67;;;;;30.27;25.23;101526.84;4934962;28;45539;-59
2022/07/18 08:49:53;;;;;;;;;9.67;8.00;;;;;30.33;25.40;101523.84;4933315;28;45508;-56
2022/07/18 08:52:19;;;;;;;;;9.67;9.00;;;;;30.36;25.27;101521.91;4930429;28;45658;-59
2022/07/18 08:54:45;;;;;;;;;6.33;6.33;;;;;30.48;26.04;101529.69;4934143;28;45405;-57
2022/07/18 08:57:10;;;;;;;;;8.00;6.67;;;;;30.56;25.05;101535.75;4933734;28;45511;-60
2022/07/18 08:59:36;;;;;;;;;5.00;5.00;;;;;30.62;24.73;101534.56;4935569;28;45585;-59
2022/07/18 09:02:01;;;;;;;;;7.67;7.67;;;;;30.59;25.01;101513.56;4935427;28;45857;-59
2022/07/18 09:04:38;;;;;;;;;9.00;7.00;;;;;30.73;24.54;101528.56;4923973;28;45385;-59
2022/07/18 09:07:04;;;;;;;;;10.33;9.33;;;;;30.78;25.11;101527.38;4925162;28;45457;-61
2022/07/18 09:09:30;;;;;;;;;7.67;6.67;;;;;30.75;24.57;101515.59;4926475;28;45632;-62
2022/07/18 09:11:57;;;;;;;;;7.00;7.00;;;;;30.88;23.65;101528.72;4931790;28;45452;-59
2022/07/18 09:14:40;;;;;;;;;8.00;6.67;;;;;30.94;23.24;101524.81;4929123;28;45453;-58
2022/07/18 09:17:14;;;;;;;;;8.67;7.00;;;;;31.01;23.61;101525.44;4934037;28;45840;-58
2022/07/18 09:19:42;;;;;;;;;5.33;5.33;;;;;31.10;23.74;101521.34;4931993;28;45445;-56
2022/07/18 09:22:21;;;;;;;;;10.67;9.00;;;;;31.15;23.38;101522.03;4935050;28;46113;-61
2022/07/18 09:25:04;;;;;;;;;6.67;6.33;;;;;31.25;23.73;101523.41;4934554;28;45659;-58
2022/07/18 09:27:38;;;;;;;;;10.00;7.00;;;;;31.29;24.55;101530.56;4923342;28;45469;-56
2022/07/18 09:30:23;;;;;;;;;7.33;7.33;;;;;31.33;24.21;101525.78;4930178;28;45414;-62
2022/07/18 09:32:55;;;;;;;;;9.67;8.00;;;;;31.41;23.31;101529.06;4928932;28;46325;-63
2022/07/18 09:35:24;;;;;;;;;8.00;8.00;;;;;31.47;22.82;101530.63;4928701;28;45458;-63
2022/07/18 09:37:58;;;;;;;;;11.33;10.00;;;;;31.57;21.75;101532.00;4917218;28;45425;-55
2022/07/18 09:40:32;;;;;;;;;8.00;8.00;;;;;31.63;22.70;101531.72;4931289;28;45713;-59
2022/07/18 09:43:01;;;;;;;;;5.00;5.00;;;;;31.70;21.45;101537.81;4932124;28;45406;-64
2022/07/18 09:45:32;;;;;;;;;8.67;7.33;;;;;31.78;21.72;101533.69;4932754;28;45345;-65
2022/07/18 09:48:01;;;;;;;;;6.00;6.00;;;;;31.87;22.08;101531.44;4934160;28;45465;-65
2022/07/18 09:50:32;;;;;;;;;5.33;5.33;;;;;31.96;21.62;101530.97;4929578;28;45480;-64
2022/07/18 09:53:09;;;;;;;;;7.00;5.00;;;;;31.99;21.68;101539.09;4926361;28;46359;-63
2022/07/18 09:55:36;;;;;;;;;5.00;5.00;;;;;32.07;21.62;101534.09;4927860;28;45513;-62
2022/07/18 09:58:07;;;;;;;;;8.33;8.33;;;;;32.18;21.65;101530.78;4933686;28;45437;-63
2022/07/18 10:00:35;;;;;;;;;10.00;8.33;;;;;32.30;21.83;101523.72;4935530;28;45546;-63
2022/07/18 10:03:03;;;;;;;;;6.00;6.00;;;;;32.40;21.17;101527.78;4931656;28;46385;-63
2022/07/18 10:05:31;;;;;;;;;7.00;5.33;;;;;32.51;20.85;101517.03;4932010;28;45502;-63
2022/07/18 10:07:56;;;;;;;;;7.00;6.00;;;;;32.63;21.55;101514.63;4928741;28;45405;-62
2022/07/18 10:10:24;;;;;;;;;7.00;5.00;;;;;32.73;21.04;101506.72;4933895;28;45510;-64
2022/07/18 10:12:53;;;;;;;;;5.00;5.00;;;;;32.81;20.76;101505.31;4930159;28;46485;-64
2022/07/18 10:15:21;;;;;;;;;9.67;6.67;;;;;32.86;21.23;101500.41;4934987;28;45554;-61
2022/07/18 10:17:47;;;;;;;;;10.00;8.33;;;;;32.91;21.27;101505.69;4932912;28;45514;-63
2022/07/18 10:20:12;;;;;;;;;7.67;6.00;;;;;32.96;21.15;101500.78;4936499;28;45396;-63
2022/07/18 10:22:42;;;;;;;;;8.33;8.33;;;;;33.01;20.75;101500.53;4935928;28;46024;-63
2022/07/18 10:25:12;;;;;;;;;7.33;7.00;;;;;32.84;20.95;101460.84;4937426;28;45542;-63
2022/07/18 10:28:09;;;;;;;;;10.67;9.00;;;;;33.12;21.33;101489.75;4937356;28;45453;-62
2022/07/18 10:30:43;;;;;;;;;9.33;7.67;;;;;33.15;20.90;101484.03;4931194;28;45316;-63
2022/07/18 10:33:40;;;;;;;;;7.33;6.67;;;;;33.28;20.33;101498.13;4928630;28;45444;-62
2022/07/18 10:36:09;;;;;;;;;8.00;8.00;;;;;33.33;20.85;101497.81;4911792;28;45434;-63
2022/07/18 10:38:34;;;;;;;;;8.00;6.00;;;;;33.35;20.20;101496.78;4931263;28;45315;-63
2022/07/18 10:41:04;;;;;;;;;9.67;8.67;;;;;33.42;20.82;101491.75;4934282;28;45577;-64
2022/07/18 10:43:30;;;;;;;;;9.67;6.67;;;;;33.48;20.61;101483.09;4933196;28;46284;-62
2022/07/18 10:45:55;;;;;;;;;9.00;6.67;;;;;33.53;20.29;101483.72;4936236;28;45359;-62
2022/07/18 10:48:33;;;;;;;;;7.33;7.33;;;;;33.59;19.99;101486.16;4936780;28;45574;-63
2022/07/18 10:51:11;;;;;;;;;7.33;7.33;;;;;33.65;19.97;101489.53;4934977;28;45443;-62
2022/07/18 10:54:03;;;;;;;;;8.00;8.00;;;;;33.70;20.24;101484.63;4934118;28;46222;-63
2022/07/18 10:56:29;;;;;;;;;10.00;9.00;;;;;33.75;19.98;101483.38;4931476;28;45399;-62
2022/07/18 10:59:22;;;;;;;;;5.67;5.67;;;;;33.79;20.07;101486.84;4935540;28;45510;-64
2022/07/18 11:01:56;;;;;;;;;8.33;8.33;;;;;33.81;19.78;101486.75;4936471;28;45816;-63
2022/07/18 11:04:26;;;;;;;;;6.00;5.67;;;;;33.84;19.13;101486.56;4931979;28;46051;-62
2022/07/18 11:07:11;;;;;;;;;7.00;7.00;;;;;33.87;19.62;101486.41;4931078;28;45235;-63
2022/07/18 11:09:45;;;;;;;;;7.00;7.00;;;;;33.90;19.47;101476.00;4927389;28;45486;-62
2022/07/18 11:12:30;;;;;;;;;6.00;6.00;;;;;33.94;19.18;101474.84;4931420;28;45508;-62
2022/07/18 11:15:13;;;;;;;;;7.67;6.33;;;;;33.94;18.59;101474.84;4932006;28;46195;-63
2022/07/18 11:17:53;;;;;;;;;5.33;5.33;;;;;34.02;19.17;101473.47;4931704;28;45406;-64
2022/07/18 11:20:33;;;;;;;;;8.67;7.67;;;;;34.05;19.49;101473.28;4930751;28;45454;-61
2022/07/18 11:22:59;;;;;;;;;8.33;8.00;;;;;33.97;19.50;101458.03;4934646;28;45392;-64
2022/07/18 11:25:28;;;;;;;;;7.33;7.33;;;;;34.13;19.26;101476.50;4936334;28;46450;-62